Terminal Aerodrome Forecast
Issued by NWS

Home | Current Version | Previous Version | Text Only | Print | Product List | Glossary On
Versions: 1 2 3 4 5 6 7 8 9 10 11 12 13 14 15 16 17
000
FTUS44 KTSA 221134
TAFRVS
TAF
KRVS 221134Z 2212/2312 36005KT 6SM -RA BR OVC025
      TEMPO 2212/2214 3SM -RA BR BKN015
     FM221400 35015G25KT 5SM -RA BR OVC012
      TEMPO 2214/2218 BKN008
     FM221800 34018G28KT P6SM BKN025
     FM222100 34015G25KT P6SM BKN050
     FM230100 33008KT P6SM SKC=

USA.gov is the U.S. government's official web portal to all federal, state and local government web resources and services.